Weather observations for the past three days for
Fort Myers, Page Field
| Date | Time (edt) | Wind (kph) | Vis. (km) | Weather | Sky Cond. | Temperature (ºC) | Relative Humidity | Wind Chill (°C) | Heat Index (°C) | Pressure | Precipitation (cm) | ||||||
|---|---|---|---|---|---|---|---|---|---|---|---|---|---|---|---|---|---|
| Air | Dwpt | 6 hour | altimeter (cm) | sea level (mb) | 1 hr | 3 hr | 6 hr | ||||||||||
| Max. | Min. | ||||||||||||||||
| 08 | 07:53 | SE 6 | 0.21 | Fog | VV002 | 22.2 | 22.2 | 24.4 | 22.2 | 100% | 76.17 | 1015.7 | |||||
| 08 | 06:53 | E 7 | 1.61 | Fog/Mist | VV002 | 22.8 | 21.1 | 90% | 76.1 | 1014.8 | |||||||
| 08 | 05:53 | Calm | 14.48 | Fair | CLR | 22.8 | 21.1 | 90% | 76.05 | 1014.0 | |||||||
| 08 | 04:53 | Calm | 16.09 | Fair | CLR | 22.8 | 21.1 | 90% | 76.02 | 1013.8 | |||||||
| 08 | 03:53 | Calm | 16.09 | Fair | CLR | 24.4 | 22.2 | 88% | 25 | 76.02 | 1013.8 | ||||||
| 08 | 02:53 | NW 6 | 16.09 | Fair | CLR | 24.4 | 22.2 | 88% | 25 | 76.05 | 1014.1 | ||||||
| 08 | 01:53 | NW 6 | 16.09 | Fair | CLR | 24.4 | 22.2 | 28.3 | 24.4 | 88% | 25 | 76.07 | 1014.3 | ||||
| 08 | 00:53 | NW 7 | 16.09 | Fair | CLR | 25 | 22.2 | 85% | 26 | 76.1 | 1014.7 | ||||||
| 07 | 23:53 | NW 11 | 16.09 | Fair | CLR | 25 | 22.2 | 85% | 26 | 76.12 | 1015.0 | ||||||
| 07 | 22:53 | NW 9 | 16.09 | Fair | CLR | 25.6 | 22.8 | 85% | 27 | 76.12 | 1014.9 | ||||||
| 07 | 21:53 | W 11 | 16.09 | Fair | CLR | 26.1 | 22.2 | 79% | 28 | 76.07 | 1014.5 | ||||||
| 07 | 20:53 | W 13 | 16.09 | Fair | CLR | 26.7 | 20.6 | 69% | 28 | 76.07 | 1014.5 | ||||||
| 07 | 19:53 | W 17 | 16.09 | Fair | CLR | 28.3 | 18.3 | 32.8 | 28.3 | 55% | 29 | 76.1 | 1014.6 | ||||
| 07 | 18:53 | W 17 | 16.09 | Fair | CLR | 30.6 | 17.8 | 46% | 31 | 76.05 | 1014.1 | ||||||
| 07 | 17:53 | W 19 | 16.09 | Fair | CLR | 31.1 | 17.8 | 45% | 32 | 76.05 | 1014.0 | ||||||
| 07 | 16:53 | W 19 | 16.09 | Fair | CLR | 32.2 | 15.6 | 37% | 32 | 76.05 | 1014.1 | ||||||
| 07 | 15:53 | W 17 | 16.09 | Fair | CLR | 32.2 | 18.3 | 44% | 33 | 76.07 | 1014.5 | ||||||
| 07 | 14:53 | W 17 G 31 | 16.09 | Fair | CLR | 32.2 | 17.8 | 42% | 33 | 76.15 | 1015.2 | ||||||
| 07 | 13:53 | W 20 | 16.09 | Fair | CLR | 31.7 | 16.1 | 31.7 | 23.3 | 39% | 32 | 76.2 | 1016.2 | ||||
| 07 | 12:53 | W 20 G 28 | 16.09 | Fair | CLR | 30.6 | 18.9 | 50% | 32 | 76.23 | 1016.5 | ||||||
| 07 | 11:53 | SW 17 G 26 | 16.09 | Mostly Cloudy | BKN030 | 29.4 | 20 | 57% | 31 | 76.25 | 1016.6 | ||||||
| 07 | 10:53 | S 17 | 16.09 | Partly Cloudy | SCT025 | 29.4 | 21.1 | 61% | 32 | 76.25 | 1016.8 | ||||||
| 07 | 09:53 | SW 15 | 16.09 | Mostly Cloudy | BKN020 | 27.2 | 21.1 | 69% | 29 | 76.25 | 1016.7 | ||||||
| 07 | 08:53 | E 7 | 16.09 | Fair | CLR | 25.6 | 21.7 | 79% | 27 | 76.25 | 1016.6 | ||||||
| 07 | 07:53 | SE 6 | 16.09 | Fair | CLR | 23.3 | 21.1 | 23.3 | 22.2 | 88% | 76.23 | 1016.5 | |||||
| 07 | 06:53 | Calm | 16.09 | A Few Clouds | FEW021 | 22.2 | 20 | 87% | 76.17 | 1015.7 | |||||||
| 07 | 05:53 | Calm | 16.09 | Fair | CLR | 22.8 | 20.6 | 87% | 76.12 | 1015.0 | |||||||
| 07 | 04:53 | Calm | 16.09 | Fair | CLR | 22.8 | 20.6 | 87% | 76.1 | 1014.7 | |||||||
| 07 | 03:53 | S 7 | 16.09 | Fair | CLR | 22.2 | 20.6 | 91% | 76.1 | 1014.8 | |||||||
| 07 | 02:53 | SE 7 | 16.09 | Fair | CLR | 22.8 | 20 | 84% | 76.12 | 1015.1 | |||||||
| 07 | 01:53 | Calm | 16.09 | Fair | CLR | 23.3 | 19.4 | 28.3 | 22.8 | 79% | 76.17 | 1015.7 | |||||
| 07 | 00:53 | NE 6 | 16.09 | Fair | CLR | 23.9 | 19.4 | 76% | 24 | 76.2 | 1016.0 | ||||||
| 06 | 23:53 | Calm | 16.09 | Fair | CLR | 24.4 | 20 | 77% | 25 | 76.23 | 1016.2 | ||||||
| 06 | 22:53 | Calm | 16.09 | Mostly Cloudy | BKN050 | 26.1 | 20.6 | 72% | 28 | 76.23 | 1016.3 | ||||||
| 06 | 21:53 | W 7 | 16.09 | Fair | CLR | 26.1 | 19.4 | 67% | 27 | 76.17 | 1015.7 | ||||||
| 06 | 20:53 | W 6 | 16.09 | Fair | CLR | 26.7 | 18.9 | 62% | 28 | 76.17 | 1015.6 | ||||||
| 06 | 19:53 | W 11 | 16.09 | Fair | CLR | 28.3 | 17.2 | 32.2 | 28.3 | 51% | 29 | 76.15 | 1015.3 | ||||
| 06 | 18:53 | W 15 | 16.09 | Fair | CLR | 29.4 | 16.7 | 46% | 30 | 76.15 | 1015.2 | ||||||
| 06 | 17:53 | SW 17 | 16.09 | Fair | CLR | 30 | 16.7 | 45% | 30 | 76.12 | 1015.1 | ||||||
| 06 | 16:53 | SW 19 | 16.09 | Fair | CLR | 30.6 | 16.7 | 43% | 31 | 76.12 | 1015.0 | ||||||
| 06 | 15:53 | SW 19 G 33 | 16.09 | Fair | CLR | 31.1 | 18.3 | 46% | 32 | 76.15 | 1015.3 | ||||||
| 06 | 14:53 | SW 19 | 16.09 | Fair | CLR | 30.6 | 20 | 53% | 33 | 76.2 | 1015.9 | ||||||
| 06 | 13:53 | SW 17 | 16.09 | Partly Cloudy | SCT038 | 30.6 | 20.6 | 31.7 | 22.2 | 55% | 33 | 76.23 | 1016.4 | ||||
| 06 | 12:53 | S 13 | 16.09 | Partly Cloudy | SCT042 SCT050 | 30.6 | 20.6 | 55% | 33 | 76.25 | 1016.8 | ||||||
| 06 | 11:53 | S 15 | 16.09 | Fair | CLR | 30 | 18.3 | 49% | 31 | 76.28 | 1017.0 | ||||||
| 06 | 10:53 | SE 17 | 16.09 | A Few Clouds | FEW025 | 28.3 | 20 | 61% | 30 | 76.28 | 1017.2 | ||||||
| 06 | 09:53 | SE 13 | 16.09 | A Few Clouds | FEW019 | 27.2 | 21.1 | 69% | 29 | 76.25 | 1016.9 | ||||||
| 06 | 08:53 | SE 15 | 16.09 | Fair | CLR | 25 | 21.1 | 79% | 26 | 76.23 | 1016.5 | ||||||
| 06 | 07:53 | E 9 | 16.09 | Fair | CLR | 22.2 | 20.6 | 22.8 | 21.1 | 91% | 76.2 | 1016.2 | |||||
| 06 | 06:53 | SE 7 | 16.09 | Fair | CLR | 21.7 | 20 | 90% | 76.15 | 1015.5 | |||||||
| 06 | 05:53 | E 9 | 16.09 | Fair | CLR | 21.7 | 20 | 90% | 76.15 | 1015.3 | |||||||
| 06 | 04:53 | E 7 | 16.09 | Fair | CLR | 21.7 | 20 | 90% | 76.12 | 1015.1 | |||||||
| 06 | 03:53 | E 7 | 16.09 | Fair | CLR | 22.2 | 20 | 87% | 76.15 | 1015.4 | |||||||
| 06 | 02:53 | E 6 | 16.09 | Fair | CLR | 22.2 | 20 | 87% | 76.15 | 1015.5 | |||||||
| 06 | 01:53 | E 6 | 16.09 | Fair | CLR | 22.8 | 19.4 | 26.1 | 22.8 | 81% | 76.17 | 1015.8 | |||||
| 06 | 00:53 | E 13 | 16.09 | Fair | CLR | 23.3 | 19.4 | 79% | 76.2 | 1015.9 | |||||||
| 05 | 23:53 | E 15 | 16.09 | Fair | CLR | 24.4 | 19.4 | 74% | 25 | 76.2 | 1016.2 | ||||||
| 05 | 22:53 | E 15 | 16.09 | A Few Clouds | FEW035 | 25 | 19.4 | 71% | 26 | 76.2 | 1016.1 | ||||||
| 05 | 21:53 | E 9 | 16.09 | Mostly Cloudy | BKN037 | 26.1 | 19.4 | 67% | 27 | 76.17 | 1015.6 | ||||||
| 05 | 20:53 | NW 7 | 16.09 | Partly Cloudy | FEW040 FEW048 SCT060 | 25.6 | 19.4 | 69% | 27 | 76.1 | 1014.7 | ||||||
| 05 | 19:53 | N 17 | 16.09 | Partly Cloudy | SCT050 SCT060 | 26.1 | 19.4 | 32.2 | 26.1 | 67% | 27 | 76.1 | 1014.5 | ||||
| 05 | 18:53 | NW 17 | 16.09 | Fair | CLR | 27.8 | 18.9 | 58% | 29 | 76.05 | 1013.9 | ||||||
| 05 | 17:53 | W 22 | 16.09 | Fair | CLR | 30 | 19.4 | 53% | 32 | 76 | 1013.4 | ||||||
| 05 | 16:53 | W 24 | 16.09 | Fair | CLR | 30.6 | 19.4 | 51% | 32 | 76 | 1013.4 | ||||||
| 05 | 15:53 | SW 15 | 14.48 | Partly Cloudy | SCT065 | 30 | 18.3 | 49% | 31 | 76 | 1013.4 | ||||||
| 05 | 14:53 | Vrbl 6 | 16.09 | Partly Cloudy | SCT060 | 31.1 | 16.1 | 40% | 31 | 76.05 | 1014.1 | ||||||
| 05 | 13:53 | E 7 | 16.09 | A Few Clouds | FEW060 | 30.6 | 16.1 | 31.1 | 21.7 | 42% | 31 | 76.1 | 1014.8 | ||||
| 05 | 12:53 | E 9 | 16.09 | Partly Cloudy | FEW041 SCT055 | 28.9 | 17.2 | 49% | 29 | 76.12 | 1015.0 | ||||||
| 05 | 11:53 | SE 9 | 16.09 | Fair | CLR | 27.8 | 18.9 | 58% | 29 | 76.17 | 1015.6 | ||||||
| 05 | 10:53 | SE 13 | 16.09 | Mostly Cloudy | SCT027 BKN040 | 27.2 | 19.4 | 62% | 29 | 76.17 | 1015.6 | ||||||
| 05 | 09:53 | E 17 | 16.09 | A Few Clouds | FEW019 | 26.1 | 19.4 | 67% | 27 | 76.15 | 1015.3 | ||||||
| 05 | 08:53 | E 15 | 16.09 | Fair | CLR | 23.9 | 18.9 | 74% | 25 | 76.15 | 1015.2 | ||||||
| Date | Time (edt) | Wind (kph) | Vis. (km) | Weather | Sky Cond. | Air | Dwpt | Max. | Min. | Relative Humidity | Wind Chill (°C) | Heat Index (°C) | altimeter (cm) | sea level (mb) | 1 hr | 3 hr | 6 hr |
| 6 hour | |||||||||||||||||
| Temperature (ºC) | Pressure | Precipitation (cm) | |||||||||||||||